Time;durP1;ratioP1;P1;durP2;ratioP2;P2;SDS_P1;SDS_P2;PMS_P1;PMS_P2;Temp;Humidity;BMP_temperature;BMP_pressure;BME280_temperature;BME280_humidity;BME280_pressure;Samples;Min_cycle;Max_cycle;Signal;HPM_P1;HPM_P2
2023/04/14 00:01:12;;;;;;;8.97;4.40;;;8.30;99.90;;;;;;5057006;28;20238;-86
2023/04/14 00:03:38;;;;;;;10.23;5.10;;;8.50;99.90;;;;;;5075289;28;20220;-85
2023/04/14 00:06:04;;;;;;;6.47;4.43;;;8.70;99.90;;;;;;5057005;28;20268;-88
2023/04/14 00:08:30;;;;;;;9.43;4.60;;;8.50;99.90;;;;;;5040318;28;20191;-85
2023/04/14 00:10:55;;;;;;;10.73;5.57;;;8.50;99.90;;;;;;5057965;28;20644;-85
2023/04/14 00:13:21;;;;;;;9.57;5.37;;;8.30;99.90;;;;;;5041755;28;20201;-87
2023/04/14 00:15:47;;;;;;;7.43;4.17;;;8.50;99.90;;;;;;5056841;28;20183;-87
2023/04/14 00:18:13;;;;;;;9.63;5.77;;;;;;;;;;5056751;28;20187;-87
2023/04/14 00:20:40;;;;;;;9.60;4.37;;;8.30;99.90;;;;;;5057058;28;20203;-87
2023/04/14 00:23:05;;;;;;;9.27;4.87;;;8.20;99.90;;;;;;5074273;28;20179;-87
2023/04/14 00:25:31;;;;;;;10.23;5.50;;;8.60;99.90;;;;;;5056538;28;20646;-87
2023/04/14 00:27:57;;;;;;;8.43;4.57;;;9.10;99.90;;;;;;5056576;28;20262;-87
2023/04/14 00:30:25;;;;;;;7.70;5.30;;;;;;;;;;5056142;28;20632;-88
2023/04/14 00:32:51;;;;;;;8.10;4.20;;;8.30;99.90;;;;;;5056367;28;20179;-87
2023/04/14 00:35:16;;;;;;;7.93;4.27;;;8.60;99.90;;;;;;5056603;28;20190;-87
2023/04/14 00:37:42;;;;;;;10.60;5.43;;;;;;;;;;5056198;28;20223;-88
2023/04/14 00:40:09;;;;;;;11.87;4.93;;;8.30;99.90;;;;;;5056292;28;20228;-88
2023/04/14 00:42:45;;;;;;;9.57;4.57;;;8.20;99.90;;;;;;5056031;28;20218;-87
2023/04/14 00:45:15;;;;;;;6.20;3.87;;;6.90;99.90;;;;;;5056151;28;20175;-88
2023/04/14 00:47:48;;;;;;;9.80;4.77;;;8.20;99.90;;;;;;5039580;28;20179;-88
2023/04/14 00:50:16;;;;;;;7.50;4.97;;;8.30;99.90;;;;;;5055970;28;20179;-88
2023/04/14 00:52:44;;;;;;;9.33;4.73;;;8.10;99.90;;;;;;5073725;28;20179;-87
2023/04/14 00:55:11;;;;;;;6.87;3.87;;;8.10;99.90;;;;;;5056114;28;20180;-87
2023/04/14 00:57:38;;;;;;;7.93;4.53;;;8.00;99.90;;;;;;5055744;28;20175;-88
2023/04/14 01:00:04;;;;;;;10.10;5.40;;;8.00;99.90;;;;;;5055882;28;20619;-88
2023/04/14 01:02:31;;;;;;;6.93;4.57;;;8.70;99.90;;;;;;5055499;28;20211;-87
2023/04/14 01:04:56;;;;;;;11.17;4.70;;;7.80;99.90;;;;;;5055828;28;20202;-87
2023/04/14 01:07:24;;;;;;;9.23;5.10;;;7.80;99.90;;;;;;5055500;28;20218;-87
2023/04/14 01:09:51;;;;;;;9.53;4.70;;;7.80;99.90;;;;;;5073747;28;20632;-87
2023/04/14 01:12:45;;;;;;;6.70;4.50;;;8.10;99.90;;;;;;5039328;28;20218;-87
2023/04/14 01:15:28;;;;;;;7.97;4.43;;;7.60;99.90;;;;;;5055261;28;20183;-86
2023/04/14 01:18:40;;;;;;;9.10;4.80;;;7.70;99.90;;;;;;5055985;28;20615;-87
2023/04/14 01:21:12;;;;;;;11.20;5.10;;;7.60;99.90;;;;;;5055697;28;20194;-87
2023/04/14 01:23:41;;;;;;;8.90;5.50;;;7.90;99.90;;;;;;5055445;28;20619;-86
2023/04/14 01:26:41;;;;;;;11.20;4.73;;;7.50;99.90;;;;;;5055683;28;20182;-87
2023/04/14 01:29:22;;;;;;;10.10;5.70;;;7.50;99.90;;;;;;5050728;28;20191;-87
2023/04/14 01:32:01;;;;;;;16.07;6.00;;;7.50;99.90;;;;;;5055183;28;20175;-87
2023/04/14 01:34:50;;;;;;;9.63;5.43;;;7.40;99.90;;;;;;5054590;28;20649;-87
2023/04/14 01:37:23;;;;;;;16.87;5.33;;;7.60;99.90;;;;;;5055222;28;20345;-88
2023/04/14 01:39:52;;;;;;;10.53;5.43;;;7.40;99.90;;;;;;5059121;28;20237;-87
2023/04/14 01:42:22;;;;;;;14.60;7.00;;;7.60;99.90;;;;;;5062719;28;20210;-86
2023/04/14 01:44:53;;;;;;;10.60;6.37;;;7.30;99.90;;;;;;5057551;28;20183;-86
2023/04/14 01:47:20;;;;;;;11.97;6.37;;;;;;;;;;5055840;28;20251;-87
2023/04/14 01:49:47;;;;;;;12.47;6.27;;;7.30;99.90;;;;;;5055557;28;20270;-87
2023/04/14 01:52:15;;;;;;;14.83;5.47;;;7.30;99.90;;;;;;5073468;28;20171;-87
2023/04/14 01:54:42;;;;;;;7.27;5.60;;;7.30;99.90;;;;;;5055545;28;20253;-87
2023/04/14 01:57:19;;;;;;;13.40;5.30;;;7.30;99.90;;;;;;5055142;28;20181;-86
2023/04/14 01:59:47;;;;;;;10.10;5.53;;;7.20;99.90;;;;;;5054925;28;20232;-87
2023/04/14 02:02:14;;;;;;;12.63;5.17;;;7.20;99.90;;;;;;5055075;28;20252;-87
2023/04/14 02:04:41;;;;;;;10.53;6.17;;;;;;;;;;5054714;28;20194;-86
2023/04/14 02:07:10;;;;;;;11.00;5.57;;;7.20;99.90;;;;;;5055266;28;20628;-86
2023/04/14 02:09:38;;;;;;;8.77;5.27;;;7.20;99.90;;;;;;5054762;28;20213;-87
2023/04/14 02:12:07;;;;;;;9.50;5.23;;;7.20;99.90;;;;;;5054671;28;20198;-86
2023/04/14 02:14:35;;;;;;;10.40;4.63;;;7.10;99.90;;;;;;5054755;28;20214;-87
2023/04/14 02:17:01;;;;;;;10.43;5.40;;;;;;;;;;5038626;28;20175;-87
2023/04/14 02:19:28;;;;;;;8.97;5.47;;;7.10;99.90;;;;;;5055041;28;20210;-87
2023/04/14 02:21:55;;;;;;;7.67;4.63;;;7.20;99.90;;;;;;5054626;28;20202;-87
2023/04/14 02:24:22;;;;;;;9.53;5.00;;;;;;;;;;5054702;28;20187;-87
2023/04/14 02:27:15;;;;;;;6.57;4.57;;;7.10;99.90;;;;;;5038314;28;20180;-87
2023/04/14 02:29:45;;;;;;;8.47;4.67;;;7.10;99.90;;;;;;5054610;28;20544;-87
2023/04/14 02:32:19;;;;;;;12.00;5.43;;;7.10;99.90;;;;;;5054619;28;20217;-87
2023/04/14 02:34:54;;;;;;;8.07;4.60;;;7.10;99.90;;;;;;5055009;28;20175;-87
2023/04/14 02:37:26;;;;;;;10.03;5.53;;;7.10;99.90;;;;;;5054809;28;20736;-87
2023/04/14 02:40:06;;;;;;;9.83;5.00;;;7.00;99.90;;;;;;5072688;28;20183;-87
2023/04/14 02:42:36;;;;;;;5.60;3.97;;;7.00;99.90;;;;;;5072349;28;20316;-87
2023/04/14 02:45:06;;;;;;;7.77;5.20;;;6.90;99.90;;;;;;5055556;28;20299;-87
2023/04/14 02:47:39;;;;;;;9.10;5.20;;;6.90;99.90;;;;;;5058661;28;20179;-87
2023/04/14 02:50:10;;;;;;;7.33;4.67;;;6.90;99.90;;;;;;5076633;28;20194;-88
2023/04/14 02:52:36;;;;;;;8.80;4.63;;;;;;;;;;5058515;28;20644;-88
2023/04/14 02:55:04;;;;;;;7.57;4.60;;;6.80;99.90;;;;;;5041716;28;20183;-87
2023/04/14 02:57:31;;;;;;;8.83;5.80;;;;;;;;;;5058437;28;20167;-88
2023/04/14 02:59:59;;;;;;;9.97;5.43;;;6.80;99.90;;;;;;5076083;28;20281;-88
2023/04/14 03:02:25;;;;;;;10.07;5.83;;;;;;;;;;5076466;28;20225;-88
2023/04/14 03:04:52;;;;;;;10.17;5.10;;;;;;;;;;5058048;28;20179;-88
2023/04/14 03:07:22;;;;;;;8.77;5.57;;;6.70;99.90;;;;;;5070279;28;20184;-87
2023/04/14 03:09:51;;;;;;;7.00;4.37;;;6.60;99.90;;;;;;5088974;28;20172;-88
2023/04/14 03:12:18;;;;;;;10.40;5.47;;;6.60;99.90;;;;;;5087728;28;20175;-88
2023/04/14 03:14:44;;;;;;;9.37;5.57;;;;;;;;;;5077904;28;20178;-87
2023/04/14 03:17:13;;;;;;;13.60;6.37;;;;;;;;;;5059676;28;20175;-87
2023/04/14 03:19:40;;;;;;;14.27;6.10;;;6.50;99.90;;;;;;5076303;28;20167;-87
2023/04/14 03:22:09;;;;;;;11.17;6.53;;;6.50;99.90;;;;;;5058050;28;20674;-87
2023/04/14 03:24:38;;;;;;;11.77;5.67;;;6.50;99.90;;;;;;5057710;28;20178;-88
2023/04/14 03:27:11;;;;;;;10.33;5.90;;;6.70;99.90;;;;;;5041517;28;20179;-88
2023/04/14 03:29:47;;;;;;;13.47;5.67;;;6.50;99.90;;;;;;5076562;28;20172;-88
2023/04/14 03:32:15;;;;;;;12.00;5.77;;;6.60;99.90;;;;;;5066858;28;20179;-87
2023/04/14 03:34:43;;;;;;;10.47;5.33;;;6.50;99.90;;;;;;5032650;28;20302;-88
2023/04/14 03:37:15;;;;;;;9.50;5.87;;;6.50;99.90;;;;;;5035227;28;20238;-88
2023/04/14 03:39:42;;;;;;;12.00;5.10;;;6.50;99.90;;;;;;5017077;28;20177;-87
2023/04/14 03:42:09;;;;;;;9.50;4.70;;;;;;;;;;5042883;28;20196;-88
2023/04/14 03:44:37;;;;;;;12.70;4.77;;;6.60;99.90;;;;;;5020751;28;20188;-89
2023/04/14 03:47:09;;;;;;;5.77;4.50;;;6.50;99.90;;;;;;5016486;28;20246;-87
2023/04/14 03:49:42;;;;;;;11.07;4.63;;;6.50;99.90;;;;;;5034815;28;20258;-90
2023/04/14 03:52:11;;;;;;;11.27;5.77;;;6.50;99.90;;;;;;5017906;28;20182;-88
2023/04/14 03:54:43;;;;;;;10.97;5.03;;;6.50;99.90;;;;;;5033696;28;20188;-89
2023/04/14 03:57:12;;;;;;;8.97;4.80;;;6.50;99.90;;;;;;5015015;28;20177;-88
2023/04/14 03:59:39;;;;;;;9.07;4.00;;;6.50;99.90;;;;;;5033806;28;20200;-89
2023/04/14 04:02:15;;;;;;;10.67;4.70;;;6.50;99.90;;;;;;5038215;28;20231;-88
2023/04/14 04:04:44;;;;;;;14.37;6.17;;;6.70;99.90;;;;;;5023152;28;20176;-90
2023/04/14 04:07:15;;;;;;;8.87;4.53;;;6.40;99.90;;;;;;5040682;28;20184;-88
2023/04/14 04:09:42;;;;;;;6.70;4.57;;;6.50;99.90;;;;;;5000660;28;20181;-91
2023/04/14 04:12:12;;;;;;;10.90;5.27;;;6.50;99.90;;;;;;5041985;28;20195;-89
2023/04/14 04:14:40;;;;;;;11.60;4.97;;;6.70;99.90;;;;;;5034183;28;20196;-90
2023/04/14 04:17:08;;;;;;;8.70;4.87;;;6.50;99.90;;;;;;5047477;28;20200;-90
2023/04/14 04:19:38;;;;;;;7.27;4.70;;;6.50;99.90;;;;;;5029823;28;20187;-90
2023/04/14 04:22:04;;;;;;;9.50;5.23;;;;;;;;;;5030753;28;20212;-90
2023/04/14 04:24:39;;;;;;;9.20;4.70;;;6.60;99.90;;;;;;5042732;28;20176;-92
2023/04/14 04:27:05;;;;;;;9.50;5.30;;;;;;;;;;5026750;28;20190;-91
2023/04/14 04:29:47;;;;;;;8.27;5.33;;;;;;;;;;5017911;28;20211;-91
2023/04/14 04:32:21;;;;;;;9.33;5.47;;;6.70;99.90;;;;;;5017141;28;20192;-90
2023/04/14 04:34:51;;;;;;;13.53;5.63;;;6.80;99.90;;;;;;5024250;28;20180;-90
2023/04/14 04:37:18;;;;;;;9.00;4.93;;;7.20;99.90;;;;;;5023797;28;20624;-92
2023/04/14 04:39:44;;;;;;;10.73;5.20;;;6.90;99.90;;;;;;5028691;28;20193;-92
2023/04/14 04:42:13;;;;;;;10.63;5.47;;;7.50;99.90;;;;;;5027089;28;20208;-91
2023/04/14 04:44:39;;;;;;;8.30;5.07;;;;;;;;;;5042402;28;20190;-91
2023/04/14 04:47:05;;;;;;;9.80;6.33;;;;;;;;;;5039991;28;20179;-92
2023/04/14 04:49:31;;;;;;;9.50;5.23;;;7.20;99.90;;;;;;5023008;28;20183;-91
2023/04/14 04:51:58;;;;;;;9.43;5.17;;;7.50;99.90;;;;;;5040498;28;20283;-91
2023/04/14 04:54:27;;;;;;;10.77;5.63;;;;;;;;;;5061758;28;20191;-90
2023/04/14 04:56:53;;;;;;;13.30;5.33;;;;;;;;;;5048729;28;20204;-91
2023/04/14 04:59:19;;;;;;;17.10;6.83;;;;;;;;;;5045555;28;20182;-92
2023/04/14 05:01:47;;;;;;;16.30;8.00;;;7.50;99.90;;;;;;5039918;28;20231;-92
2023/04/14 05:04:14;;;;;;;16.63;7.90;;;;;;;;;;5029930;28;20234;-92
2023/04/14 05:06:41;;;;;;;19.00;9.20;;;7.60;99.90;;;;;;5063379;28;20168;-91
2023/04/14 05:09:07;;;;;;;19.43;7.73;;;;;;;;;;5045650;28;20204;-93
2023/04/14 05:11:34;;;;;;;17.33;8.17;;;7.80;99.90;;;;;;5055593;28;20180;-90
2023/04/14 05:14:03;;;;;;;21.73;7.73;;;8.50;99.90;;;;;;5055027;28;20160;-90
2023/04/14 05:16:29;;;;;;;20.97;9.47;;;7.80;99.90;;;;;;5047543;28;20253;-92
2023/04/14 05:18:57;;;;;;;21.60;9.90;;;8.00;99.90;;;;;;5044832;28;20612;-94
2023/04/14 05:21:26;;;;;;;19.70;8.77;;;8.00;99.90;;;;;;5054761;28;20223;-91
2023/04/14 05:23:55;;;;;;;18.63;9.90;;;;;;;;;;5059837;28;20179;-88
2023/04/14 05:26:24;;;;;;;20.90;10.27;;;;;;;;;;5060655;28;20207;-91
2023/04/14 05:28:59;;;;;;;27.60;11.40;;;7.90;99.90;;;;;;5060702;28;20184;-91
2023/04/14 05:31:25;;;;;;;29.70;12.93;;;8.30;99.90;;;;;;5060353;28;20175;-92
2023/04/14 05:33:50;;;;;;;32.50;12.17;;;8.70;99.90;;;;;;5077879;28;20170;-91
2023/04/14 05:36:16;;;;;;;22.13;10.37;;;8.40;99.90;;;;;;5078150;28;20168;-91
2023/04/14 05:41:21;;;;;;;;;;;;;;;;;;;;;
2023/04/14 05:43:51;;;;;;;22.93;9.90;;;8.60;99.90;;;;;;5069959;28;20195;-91
2023/04/14 05:46:20;;;;;;;21.37;10.03;;;8.80;99.90;;;;;;5068057;28;20187;-92
2023/04/14 05:48:46;;;;;;;26.47;11.83;;;9.10;99.90;;;;;;5058068;28;20180;-91
2023/04/14 05:51:21;;;;;;;23.97;10.67;;;8.90;99.90;;;;;;5076197;28;20171;-90
2023/04/14 05:53:56;;;;;;;24.90;11.27;;;9.40;99.90;;;;;;5072573;28;20173;-91
2023/04/14 05:56:21;;;;;;;18.77;8.83;;;9.70;99.90;;;;;;5071023;28;20175;-90
2023/04/14 05:58:53;;;;;;;17.17;9.50;;;9.60;99.90;;;;;;5049781;28;20187;-92
2023/04/14 06:01:21;;;;;;;27.23;11.23;;;9.40;99.90;;;;;;5061470;28;20660;-92
2023/04/14 06:03:50;;;;;;;28.70;13.10;;;9.50;99.90;;;;;;5065551;28;20172;-91
2023/04/14 06:06:21;;;;;;;21.93;11.53;;;9.10;99.90;;;;;;5066244;28;20188;-92
2023/04/14 06:08:46;;;;;;;17.77;8.97;;;10.10;99.90;;;;;;5046997;28;20183;-91
2023/04/14 06:11:18;;;;;;;19.52;9.75;;;10.20;99.90;;;;;;5065801;28;20226;-90
2023/04/14 06:13:44;;;;;;;18.48;9.15;;;11.90;99.90;;;;;;5066397;28;20545;-91
2023/04/14 06:16:10;;;;;;;17.08;8.98;;;10.40;99.90;;;;;;5067235;28;20183;-92
2023/04/14 06:18:35;;;;;;;19.10;10.35;;;10.40;99.90;;;;;;5065534;28;20608;-91
2023/04/14 06:21:01;;;;;;;19.42;9.95;;;11.40;99.90;;;;;;5068848;28;20282;-93
2023/04/14 06:23:27;;;;;;;19.95;10.35;;;10.80;99.90;;;;;;5071119;28;20175;-92
2023/04/14 06:25:56;;;;;;;20.92;9.98;;;10.60;99.90;;;;;;5064682;28;20204;-92
2023/04/14 06:28:24;;;;;;;16.35;8.80;;;11.10;99.90;;;;;;5062749;28;20172;-91
2023/04/14 06:30:50;;;;;;;18.95;9.95;;;11.20;99.90;;;;;;5065532;28;20179;-91
2023/04/14 06:33:16;;;;;;;19.05;9.38;;;;;;;;;;5061324;28;20188;-92
2023/04/14 06:35:51;;;;;;;22.05;8.90;;;11.10;99.90;;;;;;5062732;28;20180;-93
2023/04/14 06:38:25;;;;;;;19.35;8.95;;;11.40;99.90;;;;;;5063676;28;20160;-91
2023/04/14 06:40:52;;;;;;;24.98;8.93;;;11.70;99.90;;;;;;5062209;28;20267;-92
2023/04/14 06:43:18;;;;;;;22.20;10.10;;;11.60;99.90;;;;;;5062786;28;20188;-91
2023/04/14 06:45:46;;;;;;;17.95;9.02;;;11.90;99.90;;;;;;5044089;28;20632;-90
2023/04/14 06:48:14;;;;;;;17.50;9.50;;;11.90;99.90;;;;;;5062832;28;20660;-89
2023/04/14 06:50:40;;;;;;;14.15;8.20;;;12.00;99.90;;;;;;5044717;28;20222;-90
2023/04/14 06:53:09;;;;;;;14.82;7.68;;;11.90;99.90;;;;;;5062999;28;20551;-90
2023/04/14 06:55:38;;;;;;;16.33;8.73;;;12.00;99.90;;;;;;5062872;28;20385;-91
2023/04/14 06:58:10;;;;;;;18.90;9.73;;;11.00;99.90;;;;;;5062674;28;20654;-90
2023/04/14 07:00:38;;;;;;;14.38;8.05;;;12.40;99.90;;;;;;5062897;28;20174;-90
2023/04/14 07:03:04;;;;;;;18.42;9.05;;;12.30;99.90;;;;;;5044500;28;20183;-91
2023/04/14 07:05:30;;;;;;;14.85;8.82;;;12.50;99.90;;;;;;5059515;28;20187;-89
2023/04/14 07:07:56;;;;;;;13.68;7.97;;;;;;;;;;5060264;28;20180;-90
2023/04/14 07:10:22;;;;;;;19.67;8.60;;;12.50;99.90;;;;;;5061065;28;20180;-88
2023/04/14 07:12:47;;;;;;;11.40;6.95;;;12.50;99.90;;;;;;5063134;28;20176;-90
2023/04/14 07:15:13;;;;;;;14.50;8.23;;;12.60;99.90;;;;;;5062946;28;20172;-91
2023/04/14 07:17:39;;;;;;;19.98;8.98;;;;;;;;;;5060147;28;20617;-91
2023/04/14 07:20:06;;;;;;;16.45;8.85;;;12.80;99.90;;;;;;5060955;28;20238;-90
2023/04/14 07:22:32;;;;;;;11.00;7.30;;;12.90;99.90;;;;;;5044435;28;20211;-91
2023/04/14 07:25:06;;;;;;;17.73;8.23;;;13.00;99.90;;;;;;5064427;28;20298;-91
2023/04/14 07:27:32;;;;;;;14.05;8.88;;;14.30;99.90;;;;;;5062828;28;20171;-91
2023/04/14 07:30:00;;;;;;;15.43;7.95;;;13.30;99.90;;;;;;5060604;28;20274;-91
2023/04/14 07:32:26;;;;;;;18.13;7.47;;;13.30;99.90;;;;;;5062516;28;20221;-91
2023/04/14 07:34:52;;;;;;;11.50;8.02;;;;;;;;;;5062873;28;20203;-89
2023/04/14 07:37:21;;;;;;;13.93;8.15;;;13.40;99.90;;;;;;5046675;28;20208;-91
2023/04/14 07:39:50;;;;;;;16.95;8.80;;;13.50;99.90;;;;;;5065241;28;20219;-92
2023/04/14 07:42:16;;;;;;;15.07;9.10;;;13.60;99.90;;;;;;5062778;28;20223;-91
2023/04/14 07:44:49;;;;;;;15.82;8.20;;;13.60;99.90;;;;;;5062368;28;20179;-90
2023/04/14 07:47:18;;;;;;;11.48;7.82;;;13.90;99.90;;;;;;5063064;28;20172;-90
2023/04/14 07:49:49;;;;;;;17.52;8.20;;;14.10;99.90;;;;;;5046772;28;20187;-88
2023/04/14 07:52:15;;;;;;;13.80;8.88;;;13.70;99.90;;;;;;5062145;28;20698;-91
2023/04/14 07:54:44;;;;;;;18.35;8.70;;;13.90;99.90;;;;;;5063321;28;20180;-90
2023/04/14 07:57:10;;;;;;;17.58;9.10;;;13.90;99.90;;;;;;5062889;28;20267;-91
2023/04/14 07:59:41;;;;;;;15.82;8.32;;;13.90;99.90;;;;;;5079187;28;20186;-92
2023/04/14 08:02:10;;;;;;;16.27;8.57;;;14.20;99.90;;;;;;5079627;28;20203;-89
2023/04/14 08:04:49;;;;;;;13.90;8.00;;;14.20;99.90;;;;;;5070702;28;20188;-89
2023/04/14 08:07:25;;;;;;;15.10;8.15;;;14.10;99.90;;;;;;5062146;28;20179;-91
2023/04/14 08:09:51;;;;;;;15.77;8.07;;;14.40;99.90;;;;;;5061842;28;20255;-91
2023/04/14 08:12:17;;;;;;;13.63;7.80;;;14.40;99.90;;;;;;5060947;28;20203;-92
2023/04/14 08:14:46;;;;;;;19.60;8.60;;;14.30;99.90;;;;;;5061257;28;20192;-90
2023/04/14 08:17:13;;;;;;;16.00;8.05;;;14.30;99.90;;;;;;5062936;28;20229;-91
2023/04/14 08:19:43;;;;;;;15.80;7.25;;;14.80;99.90;;;;;;5061432;28;20290;-92
2023/04/14 08:22:27;;;;;;;15.30;8.63;;;15.00;99.90;;;;;;5057418;28;20206;-91
2023/04/14 08:24:58;;;;;;;12.80;7.63;;;14.90;99.90;;;;;;5079218;28;20214;-90
2023/04/14 08:27:26;;;;;;;12.65;7.10;;;14.20;99.90;;;;;;5055018;28;20627;-90
2023/04/14 08:29:53;;;;;;;16.23;7.00;;;15.10;99.90;;;;;;5062478;28;20180;-92
2023/04/14 08:32:21;;;;;;;12.30;7.22;;;15.10;99.90;;;;;;5058198;28;20180;-92
2023/04/14 08:34:47;;;;;;;12.95;7.47;;;15.10;99.90;;;;;;5039043;28;20180;-90
2023/04/14 08:37:17;;;;;;;14.82;7.30;;;15.10;99.90;;;;;;5039693;28;20190;-91
2023/04/14 08:39:45;;;;;;;12.52;7.22;;;15.30;99.90;;;;;;5055401;28;20595;-91
2023/04/14 08:42:16;;;;;;;11.30;6.75;;;15.30;99.90;;;;;;5055763;28;20286;-92
2023/04/14 08:44:42;;;;;;;11.57;6.63;;;15.60;99.90;;;;;;5065627;28;20176;-90
2023/04/14 08:47:10;;;;;;;14.10;6.90;;;15.50;99.90;;;;;;5068981;28;20195;-89
2023/04/14 08:49:44;;;;;;;15.73;6.50;;;15.50;99.90;;;;;;5072677;28;20209;-90
2023/04/14 08:52:11;;;;;;;23.80;7.32;;;15.80;99.90;;;;;;5057204;28;20179;-91
2023/04/14 08:54:40;;;;;;;9.35;6.13;;;15.70;99.90;;;;;;5056884;28;20176;-93
2023/04/14 08:57:11;;;;;;;10.10;5.68;;;15.70;99.90;;;;;;5057692;28;20317;-91
2023/04/14 08:59:37;;;;;;;9.52;6.05;;;16.00;99.90;;;;;;5055386;28;20175;-90
2023/04/14 09:02:08;;;;;;;11.73;5.93;;;16.00;99.90;;;;;;5072876;28;20180;-89
2023/04/14 09:04:36;;;;;;;13.63;6.70;;;16.20;99.90;;;;;;5078607;28;20168;-90
2023/04/14 09:07:02;;;;;;;11.90;6.47;;;16.00;99.90;;;;;;5077271;28;20155;-84
2023/04/14 09:09:31;;;;;;;11.52;5.95;;;16.30;99.90;;;;;;5070506;28;20187;-89
2023/04/14 09:11:57;;;;;;;9.65;5.15;;;15.00;99.90;;;;;;5057814;28;20183;-91
2023/04/14 09:14:25;;;;;;;9.40;5.75;;;15.60;99.90;;;;;;5056911;28;20537;-91
2023/04/14 09:16:52;;;;;;;11.73;5.95;;;16.70;99.90;;;;;;5057005;28;20262;-92
2023/04/14 09:19:20;;;;;;;12.23;6.50;;;16.40;99.90;;;;;;5056223;28;20184;-93
2023/04/14 09:21:46;;;;;;;9.52;5.22;;;16.60;99.90;;;;;;5054011;28;20208;-92
2023/04/14 09:24:11;;;;;;;9.55;5.43;;;16.60;99.90;;;;;;5053589;28;20176;-91
2023/04/14 09:26:38;;;;;;;12.80;6.07;;;16.80;99.90;;;;;;5053494;28;20245;-92
2023/04/14 09:29:03;;;;;;;9.85;5.15;;;14.20;99.90;;;;;;5054253;28;20187;-92
2023/04/14 09:31:29;;;;;;;9.73;5.47;;;16.80;99.90;;;;;;5054226;28;20171;-91
2023/04/14 09:33:56;;;;;;;9.57;5.18;;;16.80;99.90;;;;;;5053256;28;20195;-92
2023/04/14 09:36:26;;;;;;;11.55;5.60;;;16.60;99.90;;;;;;5054777;28;20172;-92
2023/04/14 09:38:52;;;;;;;9.48;5.07;;;16.70;99.90;;;;;;5053484;28;20179;-92
2023/04/14 09:41:21;;;;;;;10.93;5.53;;;16.60;99.90;;;;;;5054402;28;20760;-93
2023/04/14 09:43:51;;;;;;;8.82;5.45;;;16.60;99.90;;;;;;5053354;28;20652;-92
2023/04/14 09:46:20;;;;;;;10.25;4.13;;;16.60;99.90;;;;;;5054605;28;20297;-92
2023/04/14 09:48:54;;;;;;;6.43;5.03;;;16.70;99.90;;;;;;5038161;28;20653;-92
2023/04/14 09:51:27;;;;;;;8.20;5.18;;;16.50;99.90;;;;;;5056764;28;20644;-92
2023/04/14 09:53:53;;;;;;;9.27;4.68;;;16.20;99.90;;;;;;5073930;28;20178;-92
2023/04/14 09:56:29;;;;;;;9.02;4.70;;;16.30;99.90;;;;;;5056295;28;20594;-92
2023/04/14 09:58:59;;;;;;;7.72;4.90;;;17.00;99.90;;;;;;5056127;28;20185;-92
2023/04/14 10:01:30;;;;;;;7.45;4.35;;;16.30;99.90;;;;;;5056697;28;20295;-94
2023/04/14 10:03:56;;;;;;;6.35;4.45;;;16.40;99.90;;;;;;5057622;28;20294;-91
2023/04/14 10:06:23;;;;;;;6.35;4.20;;;16.40;99.90;;;;;;5057679;28;20186;-93
2023/04/14 10:08:50;;;;;;;7.22;4.50;;;16.50;99.90;;;;;;5058021;28;20277;-92
2023/04/14 10:11:18;;;;;;;8.00;4.93;;;16.80;99.90;;;;;;5058511;28;20186;-93
2023/04/14 10:13:48;;;;;;;7.72;4.40;;;16.50;99.90;;;;;;5056769;28;20197;-93
2023/04/14 10:16:21;;;;;;;10.23;4.60;;;16.60;99.90;;;;;;5056984;28;20179;-93
2023/04/14 10:18:47;;;;;;;6.35;4.15;;;16.60;99.90;;;;;;5057214;28;20167;-92
2023/04/14 10:21:15;;;;;;;5.13;4.03;;;17.00;99.90;;;;;;5057392;28;20203;-92
2023/04/14 10:23:41;;;;;;;4.57;3.78;;;17.00;99.90;;;;;;5057047;28;20178;-92
2023/04/14 10:26:12;;;;;;;5.50;3.75;;;17.00;99.90;;;;;;5057816;28;20202;-93
2023/04/14 10:28:44;;;;;;;5.25;3.33;;;17.00;99.90;;;;;;5058306;28;20286;-93
2023/04/14 10:31:18;;;;;;;6.40;3.30;;;17.00;99.90;;;;;;5058821;28;20175;-91
2023/04/14 10:33:45;;;;;;;4.28;3.17;;;16.80;99.90;;;;;;5058273;28;20221;-93
2023/04/14 10:36:23;;;;;;;4.80;3.05;;;17.30;99.90;;;;;;5057164;28;20179;-93
2023/04/14 10:38:59;;;;;;;5.35;3.40;;;17.40;99.90;;;;;;5059136;28;20194;-92
2023/04/14 10:41:26;;;;;;;4.53;3.45;;;17.80;99.90;;;;;;5044663;28;20321;-93
2023/04/14 10:43:51;;;;;;;6.18;3.70;;;17.70;99.90;;;;;;5044334;28;20225;-92
2023/04/14 10:46:20;;;;;;;4.53;3.08;;;17.40;99.90;;;;;;5052499;28;20183;-90
2023/04/14 10:48:48;;;;;;;5.72;3.60;;;17.30;99.90;;;;;;5074933;28;20201;-91
2023/04/14 10:51:16;;;;;;;4.47;3.05;;;17.50;99.90;;;;;;5097455;28;20205;-90
2023/04/14 10:53:49;;;;;;;4.43;2.63;;;17.80;99.90;;;;;;5096972;28;20219;-90
2023/04/14 10:56:15;;;;;;;2.95;2.22;;;17.80;99.80;;;;;;5097576;28;20170;-91
2023/04/14 10:58:52;;;;;;;3.85;2.60;;;18.10;99.90;;;;;;5080053;28;20210;-92
2023/04/14 11:01:24;;;;;;;4.47;2.47;;;17.70;98.60;;;;;;5080386;28;20191;-93
2023/04/14 11:03:51;;;;;;;5.32;3.20;;;17.50;99.90;;;;;;5097423;28;20160;-91
2023/04/14 11:06:45;;;;;;;6.40;3.03;;;19.20;99.90;;;;;;5064125;28;20176;-90
2023/04/14 11:09:33;;;;;;;3.70;2.30;;;17.90;99.80;;;;;;5083502;28;20167;-92
2023/04/14 11:12:03;;;;;;;2.47;2.25;;;17.70;98.90;;;;;;5076343;28;20175;-94
2023/04/14 11:14:31;;;;;;;3.97;2.08;;;17.60;98.30;;;;;;5080550;28;20233;-93
2023/04/14 11:17:03;;;;;;;7.32;2.90;;;17.80;98.40;;;;;;5065231;28;20651;-93
2023/04/14 11:19:30;;;;;;;3.35;2.35;;;18.10;96.50;;;;;;5079410;28;20159;-93
2023/04/14 11:21:56;;;;;;;7.95;3.25;;;17.20;94.40;;;;;;5044033;28;20222;-94
2023/04/14 11:24:25;;;;;;;6.07;2.78;;;18.70;96.00;;;;;;5061234;28;20209;-93
2023/04/14 11:26:52;;;;;;;5.60;2.30;;;18.80;95.50;;;;;;5044979;28;20512;-92
2023/04/14 11:29:18;;;;;;;3.78;2.20;;;19.20;93.90;;;;;;5078857;28;20172;-93
2023/04/14 11:31:45;;;;;;;3.25;2.13;;;18.70;94.00;;;;;;5045004;28;20517;-93
2023/04/14 11:34:11;;;;;;;3.10;2.10;;;18.80;92.70;;;;;;5061662;28;20175;-92
2023/04/14 11:36:38;;;;;;;3.47;2.63;;;18.70;93.70;;;;;;5042877;28;20175;-93
2023/04/14 11:39:05;;;;;;;3.05;2.15;;;18.20;94.60;;;;;;5059123;28;20195;-91
2023/04/14 11:41:31;;;;;;;3.78;2.17;;;18.00;94.60;;;;;;5072651;28;20198;-91
2023/04/14 11:43:57;;;;;;;3.17;1.83;;;18.10;98.20;;;;;;5083201;28;20181;-90
2023/04/14 11:46:24;;;;;;;2.95;1.98;;;19.20;97.10;;;;;;5062750;28;20163;-93
2023/04/14 11:48:56;;;;;;;4.43;2.60;;;18.20;95.90;;;;;;5074381;28;20589;-92
2023/04/14 11:51:32;;;;;;;2.80;2.10;;;17.80;95.60;;;;;;5086188;28;20183;-93
2023/04/14 11:53:59;;;;;;;3.25;2.22;;;18.00;96.70;;;;;;5060100;28;20172;-93
2023/04/14 11:56:26;;;;;;;13.45;5.38;;;17.60;95.30;;;;;;5077827;28;20180;-92
2023/04/14 11:59:01;;;;;;;2.13;1.88;;;18.10;96.10;;;;;;5060367;28;20175;-93
2023/04/14 12:01:28;;;;;;;3.90;2.60;;;18.30;95.50;;;;;;5060310;28;20222;-94
2023/04/14 12:03:54;;;;;;;4.60;2.20;;;18.70;95.80;;;;;;5059277;28;20171;-93
2023/04/14 12:06:21;;;;;;;2.20;2.00;;;19.10;95.30;;;;;;5058859;28;20191;-94
2023/04/14 12:08:53;;;;;;;2.83;1.83;;;19.20;95.30;;;;;;5076805;28;20262;-94
2023/04/14 12:11:20;;;;;;;2.45;1.90;;;19.10;94.10;;;;;;5066429;28;20183;-90
2023/04/14 12:13:46;;;;;;;4.13;1.80;;;19.20;95.10;;;;;;5088129;28;20178;-91
2023/04/14 12:16:13;;;;;;;2.03;1.83;;;18.80;93.10;;;;;;5092264;28;20159;-93
2023/04/14 12:18:40;;;;;;;3.35;1.88;;;18.80;93.00;;;;;;5078305;28;20588;-93
2023/04/14 12:21:06;;;;;;;2.58;1.95;;;18.60;93.10;;;;;;5078434;28;20215;-93
2023/04/14 12:23:40;;;;;;;7.32;2.15;;;18.50;94.00;;;;;;5071809;28;20191;-92
2023/04/14 12:26:11;;;;;;;1.83;1.60;;;18.00;94.40;;;;;;5074494;28;20190;-92
2023/04/14 12:28:40;;;;;;;3.15;2.00;;;17.60;94.20;;;;;;5062354;28;20225;-94
2023/04/14 12:31:07;;;;;;;2.00;1.50;;;17.50;95.40;;;;;;5083592;28;20187;-93
2023/04/14 12:33:33;;;;;;;3.25;2.03;;;17.80;94.60;;;;;;5050055;28;20179;-93
2023/04/14 12:36:05;;;;;;;3.55;2.40;;;17.80;94.70;;;;;;5062506;28;20179;-92
2023/04/14 12:38:32;;;;;;;2.10;1.67;;;18.10;93.80;;;;;;5095512;28;20163;-86
2023/04/14 12:40:57;;;;;;;2.80;1.70;;;18.30;93.50;;;;;;5091021;28;20319;-90
2023/04/14 12:43:27;;;;;;;5.15;2.05;;;18.40;94.10;;;;;;5061939;28;20635;-90
2023/04/14 12:45:54;;;;;;;2.33;1.70;;;18.50;92.80;;;;;;5060439;28;20179;-93
2023/04/14 12:48:21;;;;;;;1.52;1.42;;;18.70;94.40;;;;;;5043524;28;20206;-94
2023/04/14 12:50:46;;;;;;;2.03;1.60;;;18.60;92.60;;;;;;5042388;28;20209;-93
2023/04/14 12:53:31;;;;;;;4.85;1.75;;;18.60;92.80;;;;;;5058330;28;20640;-91
2023/04/14 12:56:08;;;;;;;2.75;2.05;;;18.50;92.90;;;;;;5057937;28;20541;-92
2023/04/14 12:58:39;;;;;;;3.17;2.10;;;18.30;93.70;;;;;;5058757;28;20224;-93
2023/04/14 13:01:08;;;;;;;2.45;1.73;;;18.00;93.80;;;;;;5059469;28;20203;-92
2023/04/14 13:03:56;;;;;;;6.97;1.88;;;17.70;94.30;;;;;;5060322;28;20171;-91
2023/04/14 13:06:23;;;;;;;2.97;2.00;;;18.00;95.50;;;;;;5060507;28;20202;-94
2023/04/14 13:08:51;;;;;;;4.18;2.20;;;18.20;93.40;;;;;;5042832;28;20182;-94